createdAt,value
2022-08-27T00:02:02.249Z,97666.22
2022-08-27T00:04:29.030Z,97664.69
2022-08-27T00:06:56.006Z,97660.94
2022-08-27T00:09:26.846Z,97659.50
2022-08-27T00:12:02.671Z,97665.09
2022-08-27T00:14:31.614Z,97658.16
2022-08-27T00:16:58.217Z,97660.22
2022-08-27T00:19:27.369Z,97658.13
2022-08-27T00:21:55.812Z,97655.47
2022-08-27T00:24:22.546Z,97658.63
2022-08-27T00:26:53.584Z,97652.06
2022-08-27T00:29:21.051Z,97659.94
2022-08-27T00:31:51.904Z,97649.75
2022-08-27T00:34:23.374Z,97659.19
2022-08-27T00:36:50.166Z,97658.75
2022-08-27T00:39:16.978Z,97660.69
2022-08-27T00:41:45.336Z,97660.69
2022-08-27T00:44:13.056Z,97666.53
2022-08-27T00:46:55.462Z,97655.91
2022-08-27T00:49:40.213Z,97655.47
2022-08-27T00:52:24.361Z,97659.44
2022-08-27T00:54:57.047Z,97658.31
2022-08-27T00:57:34.556Z,97654.03
2022-08-27T01:00:05.045Z,97650.53
2022-08-27T01:02:32.172Z,97647.78
2022-08-27T01:05:03.036Z,97642.41
2022-08-27T01:07:33.383Z,97647.13
2022-08-27T01:10:02.459Z,97645.56
2022-08-27T01:12:31.541Z,97630.00
2022-08-27T01:15:02.686Z,97640.53
2022-08-27T01:17:29.824Z,97635.38
2022-08-27T01:20:02.617Z,97629.88
2022-08-27T01:22:53.972Z,97642.41
2022-08-27T01:25:23.750Z,97639.31
2022-08-27T01:27:52.895Z,97640.97
2022-08-27T01:30:21.708Z,97635.56
2022-08-27T01:32:51.178Z,97633.69
2022-08-27T01:35:20.433Z,97631.81
2022-08-27T01:37:50.158Z,97629.06
2022-08-27T01:43:01.467Z,97633.44
2022-08-27T01:45:41.387Z,97628.72
2022-08-27T01:48:08.204Z,97631.13
2022-08-27T01:50:38.219Z,97625.34
2022-08-27T01:53:08.674Z,97622.59
2022-08-27T01:55:35.668Z,97615.56
2022-08-27T01:58:02.549Z,97608.13
2022-08-27T02:00:39.659Z,97613.16
2022-08-27T02:03:07.506Z,97617.13
2022-08-27T02:05:44.800Z,97611.63
2022-08-27T02:08:18.324Z,97615.56
2022-08-27T02:10:47.283Z,97612.03
2022-08-27T02:13:14.385Z,97610.94
2022-08-27T02:15:42.515Z,97609.38
2022-08-27T02:18:11.021Z,97614.88
2022-08-27T02:20:40.007Z,97607.00
2022-08-27T02:23:09.448Z,97611.00
2022-08-27T02:25:36.829Z,97600.16
2022-08-27T02:28:07.924Z,97604.97
2022-08-27T02:30:37.496Z,97602.66
2022-08-27T02:33:06.661Z,97599.56
2022-08-27T02:35:40.672Z,97597.25
2022-08-27T02:38:10.171Z,97598.13
2022-08-27T02:40:37.489Z,97609.16
2022-08-27T02:43:07.283Z,97607.63
2022-08-27T02:45:35.621Z,97599.81
2022-08-27T02:48:02.590Z,97600.63
2022-08-27T02:50:41.755Z,97599.06
2022-08-27T02:53:09.781Z,97603.09
2022-08-27T02:55:37.018Z,97604.28
2022-08-27T02:58:09.040Z,97601.22
2022-08-27T03:00:36.120Z,97597.69
2022-08-27T03:03:03.168Z,97592.66
2022-08-27T03:05:31.843Z,97596.59
2022-08-27T03:08:00.143Z,97589.59
2022-08-27T03:10:26.736Z,97585.31
2022-08-27T03:12:53.617Z,97575.22
2022-08-27T03:15:20.387Z,97573.69
2022-08-27T03:18:07.808Z,97571.81
2022-08-27T03:20:40.317Z,97570.69
2022-08-27T03:23:12.621Z,97575.41
2022-08-27T03:25:39.299Z,97573.88
2022-08-27T03:28:06.482Z,97572.00
2022-08-27T03:31:00.604Z,97571.38
2022-08-27T03:33:29.089Z,97564.78
2022-08-27T03:35:55.965Z,97570.78
2022-08-27T03:38:27.403Z,97567.28
2022-08-27T03:40:54.308Z,97562.22
2022-08-27T03:43:22.529Z,97563.09
2022-08-27T03:46:01.279Z,97564.38
2022-08-27T03:48:30.359Z,97558.97
2022-08-27T03:50:59.489Z,97559.84
2022-08-27T03:53:28.371Z,97557.53
2022-08-27T03:55:54.918Z,97559.16
2022-08-27T03:58:21.597Z,97554.91
2022-08-27T04:00:48.562Z,97558.03
2022-08-27T04:03:15.238Z,97556.09
2022-08-27T04:05:47.417Z,97557.63
2022-08-27T04:08:13.945Z,97559.16
2022-08-27T04:10:41.648Z,97557.19
2022-08-27T04:13:08.506Z,97557.97
2022-08-27T04:15:37.840Z,97565.41
2022-08-27T04:18:07.573Z,97565.03
2022-08-27T04:20:35.766Z,97561.56
2022-08-27T04:23:03.320Z,97564.28
2022-08-27T04:25:31.868Z,97560.38
2022-08-27T04:28:00.955Z,97564.63
2022-08-27T04:30:27.590Z,97560.69
2022-08-27T04:32:54.497Z,97565.41
2022-08-27T04:35:22.846Z,97561.38
2022-08-27T04:37:49.653Z,97558.97
2022-08-27T04:40:16.321Z,97563.25
2022-08-27T04:42:43.162Z,97567.88
2022-08-27T04:45:10.298Z,97569.84
2022-08-27T04:47:37.037Z,97566.69
2022-08-27T04:50:05.976Z,97569.75
2022-08-27T04:52:33.338Z,97572.09
2022-08-27T04:55:11.805Z,97578.22
2022-08-27T04:57:38.683Z,97576.59
2022-08-27T05:00:07.632Z,97575.72
2022-08-27T05:02:34.367Z,97582.00
2022-08-27T05:05:00.937Z,97578.81
2022-08-27T05:07:27.506Z,97573.34
2022-08-27T05:09:58.892Z,97577.53
2022-08-27T05:12:25.599Z,97581.81
2022-08-27T05:14:54.556Z,97577.78
2022-08-27T05:17:23.673Z,97578.91
2022-08-27T05:19:52.171Z,97581.91
2022-08-27T05:22:18.735Z,97590.88
2022-08-27T05:24:49.947Z,97586.06
2022-08-27T05:27:17.738Z,97587.19
2022-08-27T05:29:44.711Z,97580.84
2022-08-27T05:32:13.513Z,97581.22
2022-08-27T05:34:40.159Z,97592.91
2022-08-27T05:37:06.950Z,97591.97
2022-08-27T05:39:33.613Z,97593.41
2022-08-27T05:42:00.193Z,97588.38
2022-08-27T05:44:42.418Z,97588.72
2022-08-27T05:47:11.604Z,97589.47
2022-08-27T05:49:38.170Z,97593.41
2022-08-27T05:52:08.868Z,97594.53
2022-08-27T05:54:41.660Z,97578.00
2022-08-27T05:57:08.707Z,97587.66
2022-08-27T05:59:54.197Z,97597.00
2022-08-27T06:02:27.330Z,97596.03
2022-08-27T06:04:54.098Z,97597.16
2022-08-27T06:07:20.987Z,97593.91
2022-08-27T06:09:47.690Z,97596.88
2022-08-27T06:12:14.387Z,97594.03
2022-08-27T06:14:41.223Z,97586.84
2022-08-27T06:17:15.484Z,97586.72
2022-08-27T06:19:48.001Z,97586.72
2022-08-27T06:22:15.055Z,97587.50
2022-08-27T06:24:44.436Z,97589.25
2022-08-27T06:27:14.745Z,97588.75
2022-08-27T06:29:42.095Z,97594.56
2022-08-27T06:32:11.386Z,97590.75
2022-08-27T06:34:38.676Z,97590.25
2022-08-27T06:37:07.621Z,97595.41
2022-08-27T06:39:38.503Z,97597.94
2022-08-27T06:42:06.791Z,97596.44
2022-08-27T06:44:33.876Z,97599.28
2022-08-27T06:47:06.977Z,97591.38
2022-08-27T06:49:33.792Z,97593.16
2022-08-27T06:52:00.733Z,97594.22
2022-08-27T06:54:27.513Z,97602.03
2022-08-27T06:56:54.065Z,97597.25
2022-08-27T06:59:21.150Z,97598.53
2022-08-27T07:01:51.400Z,97604.66
2022-08-27T07:04:32.317Z,97591.06
2022-08-27T07:07:00.312Z,97599.13
2022-08-27T07:09:32.603Z,97599.25
2022-08-27T07:12:00.140Z,97596.06
2022-08-27T07:14:27.630Z,97593.34
2022-08-27T07:16:54.246Z,97596.53
2022-08-27T07:19:21.015Z,97605.81
2022-08-27T07:21:48.629Z,97605.63
2022-08-27T07:24:15.443Z,97601.56
2022-08-27T07:26:44.043Z,97602.41
2022-08-27T07:29:16.674Z,97607.97
2022-08-27T07:31:43.775Z,97608.25
2022-08-27T07:34:19.535Z,97612.56
2022-08-27T07:36:46.205Z,97611.09
2022-08-27T07:39:15.744Z,97613.00
2022-08-27T07:42:06.590Z,97607.88
2022-08-27T07:44:34.459Z,97617.38
2022-08-27T07:47:02.466Z,97613.84
2022-08-27T07:49:30.233Z,97624.88
2022-08-27T07:51:57.059Z,97623.38
2022-08-27T07:54:26.585Z,97624.59
2022-08-27T07:56:56.436Z,97629.34
2022-08-27T07:59:27.255Z,97623.66
2022-08-27T08:01:56.192Z,97627.97
2022-08-27T08:04:28.341Z,97631.44
2022-08-27T08:06:55.948Z,97635.06
2022-08-27T08:09:24.107Z,97636.50
2022-08-27T08:11:54.243Z,97635.88
2022-08-27T08:14:21.354Z,97640.53
2022-08-27T08:16:50.143Z,97638.34
2022-08-27T08:19:17.337Z,97645.44
2022-08-27T08:21:43.958Z,97646.59
2022-08-27T08:24:10.729Z,97642.75
2022-08-27T08:26:43.857Z,97647.56
2022-08-27T08:29:12.237Z,97645.22
2022-08-27T08:31:51.224Z,97643.78
2022-08-27T08:34:19.907Z,97651.97
2022-08-27T08:36:53.813Z,97648.44
2022-08-27T08:39:22.042Z,97649.13
2022-08-27T08:42:01.187Z,97652.44
2022-08-27T08:44:45.376Z,97652.50
2022-08-27T08:47:16.755Z,97646.75
2022-08-27T08:50:19.955Z,97652.00
2022-08-27T08:53:11.051Z,97655.44
2022-08-27T08:55:43.420Z,97650.31
2022-08-27T08:58:18.919Z,97651.69
2022-08-27T09:00:46.649Z,97645.97
2022-08-27T09:03:16.345Z,97640.78
2022-08-27T09:05:50.646Z,97652.03
2022-08-27T09:08:37.718Z,97644.50
2022-08-27T09:11:41.367Z,97653.78
2022-08-27T09:14:36.499Z,97646.31
2022-08-27T09:17:10.784Z,97645.19
2022-08-27T09:19:40.551Z,97648.88
2022-08-27T09:22:48.735Z,97646.78
2022-08-27T09:25:23.161Z,97654.72
2022-08-27T09:27:55.197Z,97655.31
2022-08-27T09:30:29.839Z,97642.16
2022-08-27T09:33:01.319Z,97652.50
2022-08-27T09:35:34.669Z,97650.41
2022-08-27T09:38:02.734Z,97652.06
2022-08-27T09:40:33.648Z,97656.16
2022-08-27T09:43:20.569Z,97655.81
2022-08-27T09:45:59.502Z,97649.56
2022-08-27T09:48:37.574Z,97656.47
2022-08-27T09:51:10.621Z,97650.63
2022-08-27T09:53:44.199Z,97647.66
2022-08-27T09:56:29.892Z,97652.25
2022-08-27T09:59:08.325Z,97649.16
2022-08-27T10:01:49.230Z,97644.28
2022-08-27T10:04:25.425Z,97635.44
2022-08-27T10:06:55.048Z,97629.28
2022-08-27T10:09:38.466Z,97631.03
2022-08-27T10:12:19.361Z,97634.72
2022-08-27T10:14:53.152Z,97634.19
2022-08-27T10:17:47.491Z,97632.31
2022-08-27T10:20:25.798Z,97630.31
2022-08-27T10:23:39.138Z,97631.56
2022-08-27T10:26:33.759Z,97626.34
2022-08-27T10:29:12.113Z,97632.59
2022-08-27T10:31:49.381Z,97631.44
2022-08-27T10:34:27.710Z,97628.00
2022-08-27T10:37:36.612Z,97629.31
2022-08-27T10:40:20.810Z,97633.78
2022-08-27T10:42:57.702Z,97628.63
2022-08-27T10:45:42.611Z,97627.06
2022-08-27T10:48:18.192Z,97617.41
2022-08-27T10:50:50.569Z,97622.16
2022-08-27T10:53:49.579Z,97623.88
2022-08-27T10:56:24.929Z,97620.34
2022-08-27T10:59:05.564Z,97615.59
2022-08-27T11:01:47.784Z,97615.81
2022-08-27T11:04:48.682Z,97612.25
2022-08-27T11:07:22.145Z,97611.63
2022-08-27T11:10:03.223Z,97609.25
2022-08-27T11:12:37.533Z,97604.88
2022-08-27T11:15:13.010Z,97607.63
2022-08-27T11:17:50.534Z,97602.81
2022-08-27T11:20:39.333Z,97598.63
2022-08-27T11:23:19.407Z,97595.50
2022-08-27T11:25:58.359Z,97595.72
2022-08-27T11:28:45.715Z,97593.34
2022-08-27T11:31:33.892Z,97585.56
2022-08-27T11:34:25.659Z,97586.38
2022-08-27T11:37:28.258Z,97582.97
2022-08-27T11:40:15.724Z,97575.06
2022-08-27T11:42:51.792Z,97577.78
2022-08-27T11:45:20.795Z,97579.44
2022-08-27T11:47:59.290Z,97578.94
2022-08-27T11:50:30.914Z,97574.50
2022-08-27T11:53:06.283Z,97565.38
2022-08-27T11:55:38.443Z,97569.38
2022-08-27T11:58:26.291Z,97565.00
2022-08-27T12:00:53.938Z,97557.22
2022-08-27T12:03:26.868Z,97550.31
2022-08-27T12:05:55.555Z,97557.22
2022-08-27T12:08:24.335Z,97548.06
2022-08-27T12:11:09.536Z,97550.16
2022-08-27T12:13:53.777Z,97544.09
2022-08-27T12:16:39.014Z,97545.22
2022-08-27T12:19:28.957Z,97555.81
2022-08-27T12:22:27.751Z,97549.31
2022-08-27T12:24:58.007Z,97544.09
2022-08-27T12:27:24.662Z,97549.28
2022-08-27T12:30:12.920Z,97548.75
2022-08-27T12:32:44.353Z,97547.56
2022-08-27T12:35:32.924Z,97542.38
2022-08-27T12:38:32.664Z,97537.47
2022-08-27T12:41:05.860Z,97540.00
2022-08-27T12:43:35.272Z,97531.25
2022-08-27T12:46:11.284Z,97536.94
2022-08-27T12:48:44.140Z,97529.75
2022-08-27T12:51:23.762Z,97527.13
2022-08-27T12:54:29.923Z,97519.09
2022-08-27T12:57:29.524Z,97517.97
2022-08-27T13:00:13.707Z,97523.63
2022-08-27T13:05:38.980Z,97521.03
2022-08-27T13:08:06.166Z,97522.84
2022-08-27T13:10:32.984Z,97518.31
2022-08-27T13:13:18.870Z,97514.16
2022-08-27T13:15:58.723Z,97511.81
2022-08-27T13:18:30.024Z,97515.72
2022-08-27T13:21:21.340Z,97513.97
2022-08-27T13:23:56.270Z,97514.44
2022-08-27T13:26:25.870Z,97517.91
2022-08-27T13:28:54.172Z,97515.53
2022-08-27T13:31:23.401Z,97516.28
2022-08-27T13:33:52.621Z,97510.19
2022-08-27T13:36:34.225Z,97511.72
2022-08-27T13:39:02.988Z,97504.00
2022-08-27T13:41:35.629Z,97508.13
2022-08-27T13:44:09.460Z,97497.78
2022-08-27T13:47:00.554Z,97501.47
2022-08-27T13:49:30.998Z,97504.19
2022-08-27T13:52:01.645Z,97492.47
2022-08-27T13:54:29.360Z,97494.69
2022-08-27T13:57:08.599Z,97498.69
2022-08-27T13:59:41.948Z,97499.00
2022-08-27T14:02:09.933Z,97501.28
2022-08-27T14:04:48.891Z,97503.63
2022-08-27T14:07:23.709Z,97497.09
2022-08-27T14:09:57.328Z,97504.47
2022-08-27T14:12:32.628Z,97493.38
2022-08-27T14:15:20.181Z,97498.72
2022-08-27T14:17:49.109Z,97489.34
2022-08-27T14:20:17.906Z,97491.44
2022-08-27T14:22:45.529Z,97492.22
2022-08-27T14:25:14.606Z,97500.34
2022-08-27T14:27:41.980Z,97505.41
2022-08-27T14:30:21.514Z,97508.72
2022-08-27T14:32:59.463Z,97509.84
2022-08-27T14:35:27.875Z,97513.88
2022-08-27T14:37:54.745Z,97511.53
2022-08-27T14:40:21.741Z,97509.28
2022-08-27T14:42:50.986Z,97500.78
2022-08-27T14:45:18.474Z,97505.78
2022-08-27T14:47:45.390Z,97500.53
2022-08-27T14:50:15.422Z,97508.31
2022-08-27T14:52:42.345Z,97520.06
2022-08-27T14:55:11.028Z,97514.25
2022-08-27T14:57:39.845Z,97518.72
2022-08-27T15:00:08.176Z,97513.41
2022-08-27T15:02:35.395Z,97514.84
2022-08-27T15:05:11.911Z,97526.22
2022-08-27T15:07:39.471Z,97526.41
2022-08-27T15:10:12.082Z,97524.50
2022-08-27T15:12:39.555Z,97536.84
2022-08-27T15:15:08.133Z,97527.09
2022-08-27T15:17:35.863Z,97536.25
2022-08-27T15:20:09.236Z,97544.72
2022-08-27T15:22:44.090Z,97543.03
2022-08-27T15:25:13.307Z,97548.13
2022-08-27T15:27:40.135Z,97550.56
2022-08-27T15:30:10.140Z,97552.75
2022-08-27T15:32:40.531Z,97545.19
2022-08-27T15:35:12.467Z,97540.09
2022-08-27T15:37:39.429Z,97539.34
2022-08-27T15:40:09.264Z,97543.19
2022-08-27T15:42:36.238Z,97550.16
2022-08-27T15:45:03.695Z,97559.00
2022-08-27T15:47:30.306Z,97566.19
2022-08-27T15:49:57.204Z,97565.03
2022-08-27T15:52:24.112Z,97566.94
2022-08-27T15:54:52.502Z,97575.19
2022-08-27T15:57:20.756Z,97579.31
2022-08-27T15:59:48.807Z,97577.66
2022-08-27T16:02:19.551Z,97577.03
2022-08-27T16:04:49.263Z,97578.91
2022-08-27T16:07:20.140Z,97586.84
2022-08-27T16:09:48.093Z,97586.09
2022-08-27T16:12:26.980Z,97578.25
2022-08-27T16:14:55.392Z,97571.91
2022-08-27T16:17:30.819Z,97575.41
2022-08-27T16:19:57.483Z,97576.28
2022-08-27T16:22:24.352Z,97570.41
2022-08-27T16:24:51.073Z,97568.16
2022-08-27T16:27:17.936Z,97559.13
2022-08-27T16:29:44.547Z,97563.44
2022-08-27T16:32:18.947Z,97561.38
2022-08-27T16:34:47.446Z,97560.44
2022-08-27T16:37:23.888Z,97553.13
2022-08-27T16:39:50.703Z,97553.09
2022-08-27T16:42:22.407Z,97550.38
2022-08-27T16:44:49.180Z,97559.63
2022-08-27T16:47:16.149Z,97559.16
2022-08-27T16:50:01.499Z,97552.47
2022-08-27T16:52:28.903Z,97548.22
2022-08-27T16:54:56.876Z,97551.47
2022-08-27T16:57:27.904Z,97544.94
2022-08-27T16:59:55.140Z,97553.81
2022-08-27T17:02:30.503Z,97548.91
2022-08-27T17:05:07.319Z,97548.03
2022-08-27T17:07:50.882Z,97551.06
2022-08-27T17:10:18.596Z,97547.22
2022-08-27T17:12:48.099Z,97545.59
2022-08-27T17:15:16.825Z,97542.50
2022-08-27T17:17:43.821Z,97545.72
2022-08-27T17:20:10.778Z,97546.03
2022-08-27T17:22:37.677Z,97548.19
2022-08-27T17:25:04.649Z,97550.47
2022-08-27T17:27:31.204Z,97550.19
2022-08-27T17:29:59.710Z,97558.59
2022-08-27T17:32:26.696Z,97555.69
2022-08-27T17:34:53.572Z,97567.00
2022-08-27T17:37:22.453Z,97564.25
2022-08-27T17:39:49.002Z,97571.16
2022-08-27T17:42:15.573Z,97571.00
2022-08-27T17:44:48.784Z,97575.06
2022-08-27T17:47:15.309Z,97574.28
2022-08-27T17:49:42.140Z,97581.75
2022-08-27T17:52:13.161Z,97566.91
2022-08-27T17:54:43.661Z,97580.84
2022-08-27T17:57:28.310Z,97584.34
2022-08-27T17:59:59.501Z,97582.19
2022-08-27T18:02:40.521Z,97583.66
2022-08-27T18:05:10.606Z,97588.53
2022-08-27T18:07:40.039Z,97587.56
2022-08-27T18:10:07.930Z,97594.88
2022-08-27T18:12:34.547Z,97587.66
2022-08-27T18:15:26.197Z,97595.69
2022-08-27T18:17:56.068Z,97604.59
2022-08-27T18:20:24.975Z,97603.34
2022-08-27T18:22:52.288Z,97602.06
2022-08-27T18:25:24.570Z,97599.69
2022-08-27T18:27:58.690Z,97595.66
2022-08-27T18:30:31.484Z,97607.81
2022-08-27T18:32:58.624Z,97605.31
2022-08-27T18:35:29.038Z,97605.88
2022-08-27T18:37:55.751Z,97606.09
2022-08-27T18:40:25.564Z,97602.69
2022-08-27T18:43:03.084Z,97606.31
2022-08-27T18:45:33.251Z,97606.31
2022-08-27T18:48:00.293Z,97618.97
2022-08-27T18:50:29.390Z,97616.78
2022-08-27T18:52:57.267Z,97618.75
2022-08-27T18:55:28.082Z,97621.19
2022-08-27T18:57:59.483Z,97621.72
2022-08-27T19:00:26.088Z,97623.38
2022-08-27T19:02:53.519Z,97620.78
2022-08-27T19:05:28.084Z,97634.16
2022-08-27T19:07:58.365Z,97633.19
2022-08-27T19:10:27.366Z,97640.00
2022-08-27T19:12:54.406Z,97643.63
2022-08-27T19:15:21.429Z,97657.47
2022-08-27T19:17:53.291Z,97667.69
2022-08-27T19:20:22.394Z,97667.34
2022-08-27T19:22:49.249Z,97661.97
2022-08-27T19:25:16.842Z,97671.19
2022-08-27T19:27:46.362Z,97663.94
2022-08-27T19:30:14.396Z,97666.91
2022-08-27T19:32:41.075Z,97673.69
2022-08-27T19:35:08.500Z,97670.72
2022-08-27T19:37:42.569Z,97671.59
2022-08-27T19:40:11.104Z,97683.00
2022-08-27T19:42:39.187Z,97687.84
2022-08-27T19:45:06.459Z,97674.94
2022-08-27T19:47:38.369Z,97678.25
2022-08-27T19:50:05.678Z,97687.75
2022-08-27T19:52:32.287Z,97691.38
2022-08-27T19:55:13.590Z,97687.97
2022-08-27T19:57:41.381Z,97694.31
2022-08-27T20:00:12.478Z,97693.66
2022-08-27T20:02:40.927Z,97694.19
2022-08-27T20:05:17.833Z,97692.28
2022-08-27T20:07:51.452Z,97693.28
2022-08-27T20:10:25.752Z,97694.13
2022-08-27T20:13:01.769Z,97692.69
2022-08-27T20:15:28.316Z,97688.94
2022-08-27T20:17:55.251Z,97689.81
2022-08-27T20:20:24.884Z,97686.72
2022-08-27T20:22:52.349Z,97690.84
2022-08-27T20:25:19.604Z,97687.41
2022-08-27T20:27:49.469Z,97686.41
2022-08-27T20:30:17.952Z,97680.25
2022-08-27T20:32:46.764Z,97688.91
2022-08-27T20:35:13.828Z,97690.53
2022-08-27T20:37:42.388Z,97698.41
2022-08-27T20:40:12.965Z,97698.50
2022-08-27T20:42:41.409Z,97699.69
2022-08-27T20:45:12.591Z,97706.78
2022-08-27T20:47:41.187Z,97703.69
2022-08-27T20:50:12.013Z,97701.81
2022-08-27T20:52:39.449Z,97705.41
2022-08-27T20:55:06.971Z,97705.06
2022-08-27T20:57:33.631Z,97700.44
2022-08-27T21:00:19.381Z,97702.50
2022-08-27T21:02:46.869Z,97707.63
2022-08-27T21:05:16.944Z,97709.69
2022-08-27T21:07:44.653Z,97706.59
2022-08-27T21:10:13.438Z,97704.28
2022-08-27T21:12:40.121Z,97705.50
2022-08-27T21:15:08.727Z,97706.69
2022-08-27T21:17:37.621Z,97703.19
2022-08-27T21:20:08.772Z,97697.03
2022-08-27T21:22:35.547Z,97692.38
2022-08-27T21:25:06.543Z,97694.09
2022-08-27T21:27:33.115Z,97698.56
2022-08-27T21:29:59.857Z,97694.84
2022-08-27T21:32:26.596Z,97693.81
2022-08-27T21:34:54.949Z,97701.69
2022-08-27T21:37:21.639Z,97704.16
2022-08-27T21:39:48.358Z,97699.16
2022-08-27T21:42:15.731Z,97694.53
2022-08-27T21:44:42.656Z,97699.31
2022-08-27T21:47:09.605Z,97693.16
2022-08-27T21:49:36.252Z,97697.59
2022-08-27T21:52:06.054Z,97696.03
2022-08-27T21:54:38.580Z,97698.47
2022-08-27T21:57:05.820Z,97697.00
2022-08-27T21:59:38.635Z,97692.03
2022-08-27T22:02:23.046Z,97693.16
2022-08-27T22:04:51.965Z,97700.22
2022-08-27T22:07:20.481Z,97691.25
2022-08-27T22:09:50.510Z,97692.44
2022-08-27T22:12:17.101Z,97689.00
2022-08-27T22:14:43.685Z,97690.97
2022-08-27T22:17:10.338Z,97691.84
2022-08-27T22:19:36.859Z,97680.91
2022-08-27T22:22:12.027Z,97681.75
2022-08-27T22:24:38.562Z,97681.03
2022-08-27T22:27:05.156Z,97678.03
2022-08-27T22:29:33.492Z,97680.81
2022-08-27T22:32:00.134Z,97682.00
2022-08-27T22:34:28.824Z,97688.31
2022-08-27T22:36:55.488Z,97686.00
2022-08-27T22:39:22.075Z,97682.94
2022-08-27T22:41:51.095Z,97691.19
2022-08-27T22:44:26.972Z,97697.50
2022-08-27T22:46:55.053Z,97696.34
2022-08-27T22:49:21.757Z,97699.16
2022-08-27T22:51:49.654Z,97698.47
2022-08-27T22:54:17.757Z,97693.81
2022-08-27T22:56:44.599Z,97700.53
2022-08-27T22:59:11.268Z,97695.50
2022-08-27T23:01:38.133Z,97693.59
2022-08-27T23:04:06.554Z,97695.16
2022-08-27T23:06:36.437Z,97699.06
2022-08-27T23:09:06.593Z,97699.53
2022-08-27T23:11:34.428Z,97704.66
2022-08-27T23:14:01.178Z,97709.41
2022-08-27T23:16:28.706Z,97707.13
2022-08-27T23:18:55.254Z,97714.28
2022-08-27T23:21:22.013Z,97712.78
2022-08-27T23:23:49.202Z,97710.09
2022-08-27T23:26:36.190Z,97705.91
2022-08-27T23:29:03.016Z,97705.91
2022-08-27T23:31:29.614Z,97702.13
2022-08-27T23:33:57.576Z,97702.66
2022-08-27T23:36:24.692Z,97704.69
2022-08-27T23:38:51.259Z,97707.19
2022-08-27T23:41:19.567Z,97704.53
2022-08-27T23:43:46.587Z,97701.91
2022-08-27T23:46:13.533Z,97705.84
2022-08-27T23:48:40.711Z,97705.06
2022-08-27T23:51:09.185Z,97702.69
2022-08-27T23:53:37.614Z,97701.16
2022-08-27T23:56:05.227Z,97703.13
2022-08-27T23:58:32.766Z,97707.75
